createdAt,value
2019-02-20T00:02:15.392Z,-2.49
2019-02-20T00:04:47.557Z,-2.68
2019-02-20T00:07:17.983Z,-2.53
2019-02-20T00:09:49.131Z,-2.56
2019-02-20T00:12:20.069Z,-2.61
2019-02-20T00:14:52.637Z,-2.71
2019-02-20T00:17:24.488Z,-2.70
2019-02-20T00:19:58.973Z,-2.71
2019-02-20T00:22:39.798Z,-2.74
2019-02-20T00:25:06.015Z,-2.76
2019-02-20T00:27:36.438Z,-2.76
2019-02-20T00:30:12.124Z,-2.73
2019-02-20T00:32:43.683Z,-2.83
2019-02-20T00:35:14.576Z,-2.78
2019-02-20T00:37:47.148Z,-2.78
2019-02-20T00:40:17.884Z,-2.83
2019-02-20T00:42:49.853Z,-2.94
2019-02-20T00:45:33.843Z,-2.95
2019-02-20T00:48:10.143Z,-2.97
2019-02-20T00:50:42.619Z,-3.11
2019-02-20T00:53:16.937Z,-3.17
2019-02-20T00:55:49.821Z,-3.22
2019-02-20T00:58:21.068Z,-3.20
2019-02-20T01:00:52.537Z,-3.19
2019-02-20T01:03:25.502Z,-3.21
2019-02-20T01:05:58.190Z,-3.35
2019-02-20T01:08:29.730Z,-3.31
2019-02-20T01:11:01.664Z,-3.34
2019-02-20T01:13:33.423Z,-3.28
2019-02-20T01:16:05.307Z,-3.41
2019-02-20T01:18:36.757Z,-3.32
2019-02-20T01:21:07.183Z,-3.37
2019-02-20T01:23:39.336Z,-3.38
2019-02-20T01:26:11.147Z,-3.41
2019-02-20T01:28:42.961Z,-3.42
2019-02-20T01:31:14.707Z,-3.44
2019-02-20T01:33:47.394Z,-3.44
2019-02-20T01:36:17.623Z,-3.42
2019-02-20T01:38:48.454Z,-3.46
2019-02-20T01:41:20.623Z,-3.49
2019-02-20T01:43:52.491Z,-3.48
2019-02-20T01:46:25.052Z,-3.49
2019-02-20T01:48:57.457Z,-3.56
2019-02-20T01:51:29.391Z,-3.51
2019-02-20T01:54:02.370Z,-3.58
2019-02-20T01:56:34.248Z,-3.61
2019-02-20T01:59:04.656Z,-3.71
2019-02-20T02:01:36.415Z,-3.68
2019-02-20T02:04:08.172Z,-3.71
2019-02-20T02:06:38.462Z,-3.74
2019-02-20T02:09:10.352Z,-3.74
2019-02-20T02:11:42.601Z,-3.77
2019-02-20T02:14:13.213Z,-3.69
2019-02-20T02:16:43.801Z,-3.77
2019-02-20T02:19:17.279Z,-3.73
2019-02-20T02:21:47.841Z,-3.70
2019-02-20T02:24:19.457Z,-3.73
2019-02-20T02:26:50.396Z,-3.80
2019-02-20T02:29:23.011Z,-3.74
2019-02-20T02:31:54.723Z,-3.75
2019-02-20T02:34:26.862Z,-3.75
2019-02-20T02:36:58.646Z,-3.71
2019-02-20T02:39:29.283Z,-3.71
2019-02-20T02:42:00.774Z,-3.68
2019-02-20T02:44:34.038Z,-3.70
2019-02-20T02:47:05.685Z,-3.78
2019-02-20T02:49:38.864Z,-3.65
2019-02-20T02:52:12.090Z,-3.71
2019-02-20T02:54:42.431Z,-3.79
2019-02-20T02:57:16.590Z,-3.85
2019-02-20T02:59:48.865Z,-3.81
2019-02-20T03:02:20.208Z,-3.77
2019-02-20T03:04:50.849Z,-3.79
2019-02-20T03:07:21.576Z,-3.78
2019-02-20T03:09:53.915Z,-3.78
2019-02-20T03:12:25.807Z,-3.80
2019-02-20T03:14:56.812Z,-3.73
2019-02-20T03:17:28.174Z,-3.71
2019-02-20T03:19:59.228Z,-3.74
2019-02-20T03:22:32.008Z,-3.74
2019-02-20T03:25:03.661Z,-3.76
2019-02-20T03:27:36.257Z,-3.77
2019-02-20T03:30:08.722Z,-3.75
2019-02-20T03:32:41.489Z,-3.78
2019-02-20T03:35:13.140Z,-3.81
2019-02-20T03:37:45.399Z,-3.80
2019-02-20T03:40:17.964Z,-3.80
2019-02-20T03:42:51.489Z,-3.78
2019-02-20T03:45:22.325Z,-3.78
2019-02-20T03:47:53.470Z,-3.70
2019-02-20T03:50:24.401Z,-3.70
2019-02-20T03:52:55.034Z,-3.72
2019-02-20T03:55:27.405Z,-3.70
2019-02-20T03:57:58.574Z,-3.66
2019-02-20T04:00:30.861Z,-3.72
2019-02-20T04:03:03.079Z,-3.74
2019-02-20T04:05:35.479Z,-3.71
2019-02-20T04:08:08.218Z,-3.66
2019-02-20T04:10:38.558Z,-3.69
2019-02-20T04:13:11.024Z,-3.65
2019-02-20T04:15:44.224Z,-3.64
2019-02-20T04:18:15.667Z,-3.57
2019-02-20T04:20:47.559Z,-3.58
2019-02-20T04:23:18.364Z,-3.56
2019-02-20T04:25:50.767Z,-3.55
2019-02-20T04:28:23.414Z,-3.58
2019-02-20T04:30:56.087Z,-3.57
2019-02-20T04:33:26.925Z,-3.57
2019-02-20T04:36:01.343Z,-3.50
2019-02-20T04:38:32.485Z,-3.48
2019-02-20T04:41:04.650Z,-3.50
2019-02-20T04:43:34.979Z,-3.43
2019-02-20T04:46:05.505Z,-3.40
2019-02-20T04:48:37.873Z,-3.33
2019-02-20T04:51:09.144Z,-3.31
2019-02-20T04:53:41.612Z,-3.24
2019-02-20T04:56:13.584Z,-3.24
2019-02-20T04:58:46.482Z,-3.20
2019-02-20T05:01:16.861Z,-3.08
2019-02-20T05:03:47.461Z,-3.15
2019-02-20T05:06:19.347Z,-3.09
2019-02-20T05:08:51.926Z,-3.08
2019-02-20T05:11:22.442Z,-3.00
2019-02-20T05:13:54.450Z,-2.99
2019-02-20T05:16:25.653Z,-2.92
2019-02-20T05:18:56.507Z,-2.81
2019-02-20T05:21:27.443Z,-2.79
2019-02-20T05:23:58.372Z,-2.71
2019-02-20T05:26:29.600Z,-2.61
2019-02-20T05:29:03.239Z,-2.55
2019-02-20T05:31:35.478Z,-2.44
2019-02-20T05:34:06.360Z,-2.42
2019-02-20T05:36:37.865Z,-2.30
2019-02-20T05:39:08.734Z,-2.23
2019-02-20T05:41:39.446Z,-2.18
2019-02-20T05:44:10.751Z,-2.10
2019-02-20T05:46:41.207Z,-1.98
2019-02-20T05:49:12.178Z,-1.89
2019-02-20T05:51:43.505Z,-1.80
2019-02-20T05:54:14.328Z,-1.74
2019-02-20T05:56:49.668Z,-1.66
2019-02-20T05:59:21.223Z,-1.56
2019-02-20T06:01:52.844Z,-1.48
2019-02-20T06:04:24.322Z,-1.37
2019-02-20T06:06:55.472Z,-1.30
2019-02-20T06:09:26.712Z,-1.19
2019-02-20T06:12:02.207Z,-1.09
2019-02-20T06:14:33.233Z,-0.99
2019-02-20T06:17:07.305Z,-0.91
2019-02-20T06:19:38.150Z,-0.80
2019-02-20T06:22:10.301Z,-0.71
2019-02-20T06:24:44.066Z,-0.63
2019-02-20T06:27:15.007Z,-0.60
2019-02-20T06:29:45.876Z,-0.60
2019-02-20T06:32:17.529Z,-0.53
2019-02-20T06:34:47.759Z,-0.36
2019-02-20T06:37:20.240Z,-0.25
2019-02-20T06:39:53.647Z,-0.04
2019-02-20T06:42:25.766Z,0.02
2019-02-20T06:44:56.620Z,0.14
2019-02-20T06:47:29.062Z,0.32
2019-02-20T06:50:01.197Z,0.44
2019-02-20T06:52:32.527Z,0.42
2019-02-20T06:55:03.355Z,0.48
2019-02-20T06:57:34.068Z,0.60
2019-02-20T07:00:06.739Z,0.81
2019-02-20T07:02:38.301Z,1.00
2019-02-20T07:05:30.600Z,1.06
2019-02-20T07:08:16.320Z,1.08
2019-02-20T07:11:21.922Z,1.48
2019-02-20T07:13:58.445Z,1.63
2019-02-20T07:17:03.068Z,1.87
2019-02-20T07:19:50.854Z,1.75
2019-02-20T07:22:42.731Z,1.93
2019-02-20T07:25:26.366Z,2.29
2019-02-20T07:28:00.416Z,1.95
2019-02-20T07:30:34.166Z,1.64
2019-02-20T07:33:07.167Z,1.61
2019-02-20T07:35:39.463Z,1.41
2019-02-20T07:38:09.972Z,1.59
2019-02-20T07:40:41.616Z,1.54
2019-02-20T07:43:21.162Z,1.54
2019-02-20T07:45:54.403Z,1.76
2019-02-20T07:48:26.002Z,1.74
2019-02-20T07:50:57.554Z,1.84
2019-02-20T07:53:29.617Z,2.00
2019-02-20T07:56:02.193Z,1.77
2019-02-20T07:58:33.394Z,1.53
2019-02-20T08:01:05.596Z,1.67
2019-02-20T08:03:38.652Z,1.61
2019-02-20T08:06:09.531Z,1.93
2019-02-20T08:08:40.277Z,2.02
2019-02-20T08:11:12.836Z,2.02
2019-02-20T08:13:43.768Z,2.18
2019-02-20T08:16:15.903Z,2.11
2019-02-20T08:18:46.768Z,2.29
2019-02-20T08:21:18.570Z,2.31
2019-02-20T08:23:49.056Z,2.21
2019-02-20T08:26:20.398Z,2.39
2019-02-20T08:28:53.835Z,2.60
2019-02-20T08:31:24.123Z,2.65
2019-02-20T08:33:54.750Z,2.58
2019-02-20T08:36:25.581Z,2.61
2019-02-20T08:38:56.424Z,2.55
2019-02-20T08:41:28.276Z,2.65
2019-02-20T08:44:00.854Z,2.66
2019-02-20T08:46:32.094Z,2.56
2019-02-20T08:49:03.653Z,2.94
2019-02-20T08:51:35.818Z,2.99
2019-02-20T08:54:06.657Z,3.03
2019-02-20T08:56:37.386Z,3.07
2019-02-20T08:59:08.726Z,3.14
2019-02-20T09:01:39.971Z,2.98
2019-02-20T09:04:13.542Z,3.01
2019-02-20T09:06:46.225Z,2.89
2019-02-20T09:09:16.998Z,2.83
2019-02-20T09:11:48.140Z,2.95
2019-02-20T09:14:24.303Z,3.01
2019-02-20T09:16:54.914Z,2.99
2019-02-20T09:19:26.017Z,3.06
2019-02-20T09:21:57.096Z,3.06
2019-02-20T09:24:29.677Z,3.13
2019-02-20T09:27:03.359Z,3.15
2019-02-20T09:29:38.225Z,3.23
2019-02-20T09:32:11.315Z,3.13
2019-02-20T09:34:43.385Z,3.23
2019-02-20T09:37:13.674Z,3.24
2019-02-20T09:39:45.140Z,3.20
2019-02-20T09:42:19.136Z,3.20
2019-02-20T09:44:50.075Z,3.14
2019-02-20T09:47:22.115Z,3.21
2019-02-20T09:49:55.226Z,3.33
2019-02-20T09:52:27.720Z,3.61
2019-02-20T09:54:57.974Z,3.63
2019-02-20T09:57:36.333Z,3.57
2019-02-20T10:00:11.767Z,3.67
2019-02-20T10:02:42.107Z,3.87
2019-02-20T10:05:14.171Z,3.94
2019-02-20T10:07:46.023Z,3.84
2019-02-20T10:10:18.820Z,4.06
2019-02-20T10:12:50.869Z,4.31
2019-02-20T10:15:24.373Z,4.27
2019-02-20T10:17:56.118Z,4.22
2019-02-20T10:20:28.597Z,4.02
2019-02-20T10:22:59.632Z,3.95
2019-02-20T10:25:29.953Z,4.06
2019-02-20T10:28:04.478Z,4.10
2019-02-20T10:30:35.603Z,4.21
2019-02-20T10:33:10.656Z,4.04
2019-02-20T10:35:41.799Z,4.11
2019-02-20T10:38:12.979Z,4.09
2019-02-20T10:40:43.673Z,4.12
2019-02-20T10:43:16.147Z,3.95
2019-02-20T10:45:47.492Z,4.31
2019-02-20T10:48:20.309Z,4.34
2019-02-20T10:50:52.543Z,4.45
2019-02-20T10:53:25.382Z,4.32
2019-02-20T10:55:57.282Z,4.20
2019-02-20T10:58:30.988Z,4.37
2019-02-20T11:01:01.616Z,4.62
2019-02-20T11:03:34.785Z,4.73
2019-02-20T11:06:05.951Z,4.65
2019-02-20T11:08:37.020Z,4.63
2019-02-20T11:11:09.250Z,4.62
2019-02-20T11:13:40.061Z,4.66
2019-02-20T11:16:10.721Z,4.88
2019-02-20T11:18:43.466Z,4.68
2019-02-20T11:21:16.300Z,4.74
2019-02-20T11:23:47.115Z,4.74
2019-02-20T11:26:21.880Z,4.96
2019-02-20T11:28:55.043Z,4.95
2019-02-20T11:31:26.075Z,4.97
2019-02-20T11:33:56.708Z,5.05
2019-02-20T11:36:27.330Z,5.14
2019-02-20T11:38:58.373Z,5.08
2019-02-20T11:41:31.881Z,5.19
2019-02-20T11:44:03.736Z,5.52
2019-02-20T11:46:34.779Z,5.62
2019-02-20T11:49:07.504Z,6.20
2019-02-20T11:51:40.435Z,6.54
2019-02-20T11:54:12.978Z,6.53
2019-02-20T11:56:43.750Z,6.25
2019-02-20T11:59:15.599Z,6.18
2019-02-20T12:01:46.656Z,6.13
2019-02-20T12:04:18.546Z,6.04
2019-02-20T12:06:49.442Z,5.71
2019-02-20T12:09:21.809Z,5.56
2019-02-20T12:11:54.037Z,5.44
2019-02-20T12:14:25.029Z,5.37
2019-02-20T12:16:59.726Z,5.35
2019-02-20T12:19:30.105Z,5.31
2019-02-20T12:22:01.615Z,5.19
2019-02-20T12:24:34.302Z,5.21
2019-02-20T12:27:04.606Z,5.22
2019-02-20T12:29:37.232Z,5.44
2019-02-20T12:32:09.465Z,6.12
2019-02-20T12:34:42.143Z,7.04
2019-02-20T12:37:16.047Z,7.57
2019-02-20T12:39:48.248Z,6.96
2019-02-20T12:42:28.161Z,6.94
2019-02-20T12:52:32.628Z,7.48
2019-02-20T12:58:17.444Z,6.94
2019-02-20T13:00:49.840Z,6.31
2019-02-20T13:03:23.017Z,6.21
2019-02-20T13:05:54.322Z,5.87
2019-02-20T13:08:27.337Z,5.80
2019-02-20T13:10:58.377Z,5.87
2019-02-20T13:13:30.553Z,5.94
2019-02-20T13:16:09.349Z,5.97
2019-02-20T13:18:37.225Z,5.78
2019-02-20T13:21:11.451Z,5.84
2019-02-20T13:23:48.275Z,5.82
2019-02-20T13:26:20.019Z,5.74
2019-02-20T13:29:01.494Z,5.61
2019-02-20T13:31:36.237Z,5.56
2019-02-20T13:34:08.130Z,5.56
2019-02-20T13:36:39.553Z,5.57
2019-02-20T13:39:10.639Z,5.50
2019-02-20T13:41:44.439Z,5.44
2019-02-20T13:44:17.081Z,5.48
2019-02-20T13:46:50.366Z,5.46
2019-02-20T13:49:22.544Z,5.43
2019-02-20T13:51:56.103Z,5.44
2019-02-20T13:54:28.694Z,5.52
2019-02-20T13:57:02.351Z,5.44
2019-02-20T13:59:34.543Z,5.42
2019-02-20T14:02:06.163Z,5.39
2019-02-20T14:04:40.423Z,5.43
2019-02-20T14:07:10.849Z,5.47
2019-02-20T14:09:42.988Z,5.46
2019-02-20T14:12:14.540Z,5.44
2019-02-20T14:14:45.368Z,5.45
2019-02-20T14:17:16.514Z,5.43
2019-02-20T14:19:49.247Z,5.48
2019-02-20T14:22:20.809Z,5.45
2019-02-20T14:24:56.846Z,5.39
2019-02-20T14:27:28.809Z,5.43
2019-02-20T14:30:01.564Z,5.46
2019-02-20T14:32:34.380Z,5.51
2019-02-20T14:35:08.820Z,5.39
2019-02-20T14:37:48.193Z,5.42
2019-02-20T14:40:21.650Z,5.42
2019-02-20T14:42:55.323Z,5.42
2019-02-20T14:45:27.393Z,5.31
2019-02-20T14:48:00.388Z,5.39
2019-02-20T14:50:33.008Z,5.42
2019-02-20T14:53:05.337Z,5.34
2019-02-20T14:55:37.658Z,5.33
2019-02-20T14:58:10.672Z,5.30
2019-02-20T15:00:45.699Z,5.31
2019-02-20T15:03:22.544Z,5.29
2019-02-20T15:05:53.476Z,5.29
2019-02-20T15:08:24.071Z,5.24
2019-02-20T15:10:54.718Z,5.29
2019-02-20T15:13:26.180Z,5.28
2019-02-20T15:15:57.811Z,5.31
2019-02-20T15:18:30.752Z,5.30
2019-02-20T15:21:02.790Z,5.33
2019-02-20T15:23:33.209Z,5.31
2019-02-20T15:26:04.243Z,5.30
2019-02-20T15:28:35.908Z,5.18
2019-02-20T15:31:07.150Z,5.20
2019-02-20T15:33:38.189Z,5.18
2019-02-20T15:36:09.433Z,5.19
2019-02-20T15:38:42.322Z,5.17
2019-02-20T15:41:13.252Z,5.22
2019-02-20T15:43:43.984Z,5.14
2019-02-20T15:46:16.870Z,5.14
2019-02-20T15:48:50.257Z,5.16
2019-02-20T15:51:21.652Z,5.17
2019-02-20T15:53:52.961Z,5.14
2019-02-20T15:56:24.096Z,5.13
2019-02-20T15:58:56.540Z,5.11
2019-02-20T16:01:26.928Z,5.16
2019-02-20T16:03:58.447Z,5.12
2019-02-20T16:06:30.232Z,5.14
2019-02-20T16:09:02.776Z,5.15
2019-02-20T16:11:34.536Z,5.03
2019-02-20T16:14:05.675Z,5.10
2019-02-20T16:16:36.587Z,5.03
2019-02-20T16:19:07.554Z,5.06
2019-02-20T16:21:39.404Z,5.03
2019-02-20T16:24:09.612Z,5.08
2019-02-20T16:26:42.205Z,4.99
2019-02-20T16:29:13.670Z,5.01
2019-02-20T16:31:45.015Z,5.01
2019-02-20T16:34:18.077Z,5.02
2019-02-20T16:36:50.883Z,5.06
2019-02-20T16:39:22.022Z,5.03
2019-02-20T16:41:52.994Z,4.95
2019-02-20T16:44:23.787Z,5.01
2019-02-20T16:46:54.958Z,4.99
2019-02-20T16:49:28.061Z,5.02
2019-02-20T16:51:59.156Z,4.90
2019-02-20T16:54:31.595Z,4.94
2019-02-20T16:57:02.876Z,4.99
2019-02-20T16:59:33.608Z,4.91
2019-02-20T17:02:04.342Z,4.97
2019-02-20T17:04:39.559Z,4.92
2019-02-20T17:07:10.724Z,4.93
2019-02-20T17:09:43.326Z,4.93
2019-02-20T17:12:14.442Z,4.87
2019-02-20T17:14:46.096Z,4.83
2019-02-20T17:17:17.235Z,4.82
2019-02-20T17:19:47.665Z,4.86
2019-02-20T17:22:18.292Z,4.78
2019-02-20T17:24:49.541Z,4.74
2019-02-20T17:27:20.342Z,4.69
2019-02-20T17:29:51.343Z,4.68
2019-02-20T17:32:23.987Z,4.71
2019-02-20T17:34:55.335Z,4.43
2019-02-20T17:37:29.652Z,4.12
2019-02-20T17:40:00.690Z,3.89
2019-02-20T17:42:32.450Z,3.88
2019-02-20T17:45:04.613Z,3.74
2019-02-20T17:47:35.548Z,3.69
2019-02-20T17:50:09.670Z,3.65
2019-02-20T17:52:43.466Z,3.63
2019-02-20T17:55:14.101Z,3.50
2019-02-20T17:57:45.139Z,3.49
2019-02-20T18:00:20.623Z,3.49
2019-02-20T18:02:52.026Z,3.57
2019-02-20T18:05:23.896Z,3.55
2019-02-20T18:07:55.550Z,3.62
2019-02-20T18:10:26.684Z,3.59
2019-02-20T18:12:57.523Z,3.63
2019-02-20T18:15:28.762Z,3.60
2019-02-20T18:18:01.140Z,3.62
2019-02-20T18:20:33.715Z,3.60
2019-02-20T18:23:05.981Z,3.62
2019-02-20T18:25:36.510Z,3.47
2019-02-20T18:28:08.786Z,3.45
2019-02-20T18:30:40.130Z,3.39
2019-02-20T18:33:10.757Z,3.42
2019-02-20T18:35:41.765Z,3.42
2019-02-20T18:38:14.163Z,3.31
2019-02-20T18:40:44.808Z,3.33
2019-02-20T18:43:16.521Z,3.29
2019-02-20T18:45:48.204Z,3.33
2019-02-20T18:48:19.555Z,3.32
2019-02-20T18:50:50.496Z,3.32
2019-02-20T18:53:21.325Z,3.23
2019-02-20T18:55:56.237Z,3.29
2019-02-20T18:58:33.751Z,3.22
2019-02-20T19:01:01.172Z,3.27
2019-02-20T19:03:33.270Z,3.22
2019-02-20T19:06:05.237Z,3.18
2019-02-20T19:08:41.321Z,3.20
2019-02-20T19:11:26.875Z,3.12
2019-02-20T19:14:13.370Z,3.11
2019-02-20T19:16:53.559Z,3.09
2019-02-20T19:19:35.517Z,3.17
2019-02-20T19:22:09.570Z,3.12
2019-02-20T19:24:47.380Z,3.05
2019-02-20T19:27:23.570Z,3.02
2019-02-20T19:30:27.228Z,3.08
2019-02-20T19:33:24.570Z,3.03
2019-02-20T19:36:10.024Z,3.03
2019-02-20T19:38:58.910Z,2.96
2019-02-20T19:41:52.016Z,3.08
2019-02-20T19:44:31.923Z,3.08
2019-02-20T19:47:15.135Z,3.03
2019-02-20T19:50:18.171Z,3.01
2019-02-20T19:52:53.949Z,3.05
2019-02-20T19:55:37.403Z,3.10
2019-02-20T19:58:42.811Z,3.06
2019-02-20T20:01:51.903Z,3.14
2019-02-20T20:04:52.408Z,3.06
2019-02-20T20:07:54.077Z,3.04
2019-02-20T20:10:43.551Z,3.11
2019-02-20T20:13:34.528Z,3.12
2019-02-20T20:16:27.002Z,3.12
2019-02-20T20:19:13.512Z,3.17
2019-02-20T20:22:01.311Z,3.14
2019-02-20T20:24:45.971Z,3.18
2019-02-20T20:27:38.305Z,3.15
2019-02-20T20:30:27.886Z,3.23
2019-02-20T20:33:16.670Z,3.15
2019-02-20T20:35:55.514Z,3.16
2019-02-20T20:39:05.725Z,3.12
2019-02-20T20:41:44.127Z,3.11
2019-02-20T20:44:30.833Z,3.10
2019-02-20T20:47:25.180Z,3.10
2019-02-20T20:50:18.993Z,3.09
2019-02-20T20:53:08.260Z,3.09
2019-02-20T20:56:00.907Z,3.11
2019-02-20T20:58:40.959Z,3.12
2019-02-20T21:01:20.802Z,3.17
2019-02-20T21:03:56.457Z,3.23
2019-02-20T21:06:42.752Z,3.27
2019-02-20T21:09:25.482Z,3.22
2019-02-20T21:12:28.651Z,3.23
2019-02-20T21:15:24.473Z,3.30
2019-02-20T21:18:16.734Z,3.22
2019-02-20T21:21:03.523Z,3.22
2019-02-20T21:23:52.278Z,3.19
2019-02-20T21:26:45.640Z,3.10
2019-02-20T21:29:28.695Z,3.03
2019-02-20T21:32:05.534Z,3.01
2019-02-20T21:34:59.305Z,3.11
2019-02-20T21:37:45.810Z,3.06
2019-02-20T21:40:29.444Z,3.06
2019-02-20T21:43:24.653Z,3.06
2019-02-20T21:46:31.223Z,3.03
2019-02-20T21:49:16.799Z,3.05
2019-02-20T21:52:10.370Z,3.06
2019-02-20T21:54:47.757Z,3.05
2019-02-20T21:57:24.429Z,3.06
2019-02-20T22:00:13.789Z,3.07
2019-02-20T22:02:50.678Z,3.06
2019-02-20T22:05:35.133Z,3.01
2019-02-20T22:08:24.613Z,3.09
2019-02-20T22:11:12.956Z,3.08
2019-02-20T22:14:04.569Z,3.04
2019-02-20T22:17:02.963Z,3.04
2019-02-20T22:19:45.976Z,3.07
2019-02-20T22:22:31.964Z,3.04
2019-02-20T22:25:40.668Z,3.04
2019-02-20T22:28:23.396Z,3.06
2019-02-20T22:31:21.064Z,3.02
2019-02-20T22:34:21.091Z,3.02
2019-02-20T22:37:10.141Z,2.93
2019-02-20T22:39:45.492Z,2.85
2019-02-20T22:42:41.715Z,2.89
2019-02-20T22:45:33.615Z,2.85
2019-02-20T22:48:17.283Z,2.82
2019-02-20T22:51:13.611Z,2.67
2019-02-20T22:54:05.871Z,2.69
2019-02-20T22:56:59.108Z,2.69
2019-02-20T23:00:06.732Z,2.62
2019-02-20T23:02:43.889Z,2.68
2019-02-20T23:05:40.533Z,2.68
2019-02-20T23:08:20.376Z,2.72
2019-02-20T23:11:11.685Z,2.71
2019-02-20T23:13:51.637Z,2.76
2019-02-20T23:16:24.626Z,2.78
2019-02-20T23:18:56.589Z,2.79
2019-02-20T23:21:27.318Z,2.79
2019-02-20T23:23:58.152Z,2.78
2019-02-20T23:26:31.314Z,2.85
2019-02-20T23:29:01.767Z,2.87
2019-02-20T23:31:35.981Z,2.85
2019-02-20T23:34:06.701Z,2.78
2019-02-20T23:36:37.482Z,2.86
2019-02-20T23:39:09.103Z,2.88
2019-02-20T23:41:40.106Z,2.81
2019-02-20T23:44:10.775Z,2.85
2019-02-20T23:46:42.122Z,2.86
2019-02-20T23:49:12.681Z,2.79
2019-02-20T23:51:45.248Z,2.85
2019-02-20T23:54:17.424Z,2.85
2019-02-20T23:56:50.471Z,2.79
2019-02-20T23:59:21.729Z,2.77
